sensor_id;sensor_type;location;lat;lon;timestamp;temperature;humidity
14122;DHT22;7139;48.114;11.442;2023-07-30T00:01:53;18.50;99.90
14122;DHT22;7139;48.114;11.442;2023-07-30T00:04:20;18.40;99.90
14122;DHT22;7139;48.114;11.442;2023-07-30T00:06:47;18.40;99.90
14122;DHT22;7139;48.114;11.442;2023-07-30T00:09:14;18.40;99.90
14122;DHT22;7139;48.114;11.442;2023-07-30T00:11:41;18.40;99.90
14122;DHT22;7139;48.114;11.442;2023-07-30T00:14:09;18.40;99.90
14122;DHT22;7139;48.114;11.442;2023-07-30T00:16:36;18.40;99.90
14122;DHT22;7139;48.114;11.442;2023-07-30T00:19:03;18.50;99.90
14122;DHT22;7139;48.114;11.442;2023-07-30T00:21:29;18.40;99.90
14122;DHT22;7139;48.114;11.442;2023-07-30T00:23:56;18.40;99.90
14122;DHT22;7139;48.114;11.442;2023-07-30T00:26:23;18.40;99.90
14122;DHT22;7139;48.114;11.442;2023-07-30T00:28:51;18.40;99.90
14122;DHT22;7139;48.114;11.442;2023-07-30T00:31:19;18.40;99.90
14122;DHT22;7139;48.114;11.442;2023-07-30T00:33:46;18.40;99.90
14122;DHT22;7139;48.114;11.442;2023-07-30T00:36:13;18.30;99.90
14122;DHT22;7139;48.114;11.442;2023-07-30T00:38:40;18.30;99.90
14122;DHT22;7139;48.114;11.442;2023-07-30T00:41:07;18.30;99.90
14122;DHT22;7139;48.114;11.442;2023-07-30T00:43:34;18.20;99.90
14122;DHT22;7139;48.114;11.442;2023-07-30T00:46:01;18.20;99.90
14122;DHT22;7139;48.114;11.442;2023-07-30T00:48:29;18.30;99.90
14122;DHT22;7139;48.114;11.442;2023-07-30T00:50:57;18.20;99.90
14122;DHT22;7139;48.114;11.442;2023-07-30T00:53:25;18.20;99.90
14122;DHT22;7139;48.114;11.442;2023-07-30T00:55:52;18.20;99.90
14122;DHT22;7139;48.114;11.442;2023-07-30T00:58:20;18.20;99.90
14122;DHT22;7139;48.114;11.442;2023-07-30T01:00:48;18.20;99.90
14122;DHT22;7139;48.114;11.442;2023-07-30T01:03:15;18.20;99.90
14122;DHT22;7139;48.114;11.442;2023-07-30T01:05:44;18.20;99.90
14122;DHT22;7139;48.114;11.442;2023-07-30T01:08:11;18.10;99.90
14122;DHT22;7139;48.114;11.442;2023-07-30T01:10:38;18.10;99.90
14122;DHT22;7139;48.114;11.442;2023-07-30T01:13:09;18.10;99.90
14122;DHT22;7139;48.114;11.442;2023-07-30T01:15:36;18.10;99.90
14122;DHT22;7139;48.114;11.442;2023-07-30T01:18:03;18.10;99.90
14122;DHT22;7139;48.114;11.442;2023-07-30T01:20:30;18.10;99.90
14122;DHT22;7139;48.114;11.442;2023-07-30T01:22:58;18.10;99.90
14122;DHT22;7139;48.114;11.442;2023-07-30T01:25:29;18.10;99.90
14122;DHT22;7139;48.114;11.442;2023-07-30T01:28:01;18.10;99.90
14122;DHT22;7139;48.114;11.442;2023-07-30T01:30:33;18.10;99.90
14122;DHT22;7139;48.114;11.442;2023-07-30T01:33:05;18.00;99.90
14122;DHT22;7139;48.114;11.442;2023-07-30T01:35:32;18.00;99.90
14122;DHT22;7139;48.114;11.442;2023-07-30T01:38:03;18.00;99.90
14122;DHT22;7139;48.114;11.442;2023-07-30T01:40:31;17.90;99.90
14122;DHT22;7139;48.114;11.442;2023-07-30T01:42:58;18.00;99.90
14122;DHT22;7139;48.114;11.442;2023-07-30T01:45:25;18.00;99.90
14122;DHT22;7139;48.114;11.442;2023-07-30T01:47:52;18.00;99.90
14122;DHT22;7139;48.114;11.442;2023-07-30T01:50:19;17.90;99.90
14122;DHT22;7139;48.114;11.442;2023-07-30T01:52:46;17.90;99.90
14122;DHT22;7139;48.114;11.442;2023-07-30T01:55:14;17.90;99.90
14122;DHT22;7139;48.114;11.442;2023-07-30T01:57:41;17.90;99.90
14122;DHT22;7139;48.114;11.442;2023-07-30T02:00:08;17.90;99.90
14122;DHT22;7139;48.114;11.442;2023-07-30T02:02:35;17.90;99.90
14122;DHT22;7139;48.114;11.442;2023-07-30T02:05:02;18.00;99.90
14122;DHT22;7139;48.114;11.442;2023-07-30T02:07:29;18.00;99.90
14122;DHT22;7139;48.114;11.442;2023-07-30T02:09:56;18.00;99.90
14122;DHT22;7139;48.114;11.442;2023-07-30T02:12:24;18.10;99.90
14122;DHT22;7139;48.114;11.442;2023-07-30T02:14:51;18.10;99.90
14122;DHT22;7139;48.114;11.442;2023-07-30T02:17:18;18.20;99.90
14122;DHT22;7139;48.114;11.442;2023-07-30T02:19:45;18.20;99.90
14122;DHT22;7139;48.114;11.442;2023-07-30T02:22:12;18.30;99.90
14122;DHT22;7139;48.114;11.442;2023-07-30T02:24:38;18.30;99.90
14122;DHT22;7139;48.114;11.442;2023-07-30T02:27:05;18.30;99.90
14122;DHT22;7139;48.114;11.442;2023-07-30T02:29:33;18.30;99.90
14122;DHT22;7139;48.114;11.442;2023-07-30T02:32:00;18.30;99.90
14122;DHT22;7139;48.114;11.442;2023-07-30T02:34:27;18.40;99.90
14122;DHT22;7139;48.114;11.442;2023-07-30T02:36:54;18.30;99.90
14122;DHT22;7139;48.114;11.442;2023-07-30T02:39:20;18.40;99.90
14122;DHT22;7139;48.114;11.442;2023-07-30T02:41:47;18.40;99.90
14122;DHT22;7139;48.114;11.442;2023-07-30T02:44:14;18.40;99.90
14122;DHT22;7139;48.114;11.442;2023-07-30T02:46:42;18.40;99.90
14122;DHT22;7139;48.114;11.442;2023-07-30T02:49:09;18.40;99.90
14122;DHT22;7139;48.114;11.442;2023-07-30T02:51:35;18.40;99.90
14122;DHT22;7139;48.114;11.442;2023-07-30T02:54:04;18.40;99.90
14122;DHT22;7139;48.114;11.442;2023-07-30T02:56:32;18.40;99.90
14122;DHT22;7139;48.114;11.442;2023-07-30T02:58:59;18.40;99.90
14122;DHT22;7139;48.114;11.442;2023-07-30T03:01:26;18.50;99.90
14122;DHT22;7139;48.114;11.442;2023-07-30T03:03:54;18.40;99.90
14122;DHT22;7139;48.114;11.442;2023-07-30T03:06:21;18.50;99.90
14122;DHT22;7139;48.114;11.442;2023-07-30T03:08:48;18.50;99.90
14122;DHT22;7139;48.114;11.442;2023-07-30T03:11:14;18.50;99.90
14122;DHT22;7139;48.114;11.442;2023-07-30T03:13:41;18.50;99.90
14122;DHT22;7139;48.114;11.442;2023-07-30T03:16:08;18.50;99.90
14122;DHT22;7139;48.114;11.442;2023-07-30T03:18:35;18.40;99.90
14122;DHT22;7139;48.114;11.442;2023-07-30T03:21:03;18.40;99.90
14122;DHT22;7139;48.114;11.442;2023-07-30T03:23:30;18.40;99.90
14122;DHT22;7139;48.114;11.442;2023-07-30T03:25:57;18.40;99.90
14122;DHT22;7139;48.114;11.442;2023-07-30T03:28:25;18.40;99.90
14122;DHT22;7139;48.114;11.442;2023-07-30T03:30:52;18.40;99.90
14122;DHT22;7139;48.114;11.442;2023-07-30T03:33:19;18.40;99.90
14122;DHT22;7139;48.114;11.442;2023-07-30T03:35:46;18.40;99.90
14122;DHT22;7139;48.114;11.442;2023-07-30T03:38:15;18.40;99.90
14122;DHT22;7139;48.114;11.442;2023-07-30T03:40:41;18.40;99.90
14122;DHT22;7139;48.114;11.442;2023-07-30T03:43:08;18.40;99.90
14122;DHT22;7139;48.114;11.442;2023-07-30T03:45:35;18.40;99.90
14122;DHT22;7139;48.114;11.442;2023-07-30T03:48:02;18.30;99.90
14122;DHT22;7139;48.114;11.442;2023-07-30T03:50:29;18.30;99.90
14122;DHT22;7139;48.114;11.442;2023-07-30T03:52:55;18.30;99.90
14122;DHT22;7139;48.114;11.442;2023-07-30T03:55:24;18.30;99.90
14122;DHT22;7139;48.114;11.442;2023-07-30T03:57:51;18.30;99.90
14122;DHT22;7139;48.114;11.442;2023-07-30T04:00:18;18.30;99.90
14122;DHT22;7139;48.114;11.442;2023-07-30T04:02:45;18.30;99.90
14122;DHT22;7139;48.114;11.442;2023-07-30T04:05:11;18.30;99.90
14122;DHT22;7139;48.114;11.442;2023-07-30T04:07:38;18.30;99.90
14122;DHT22;7139;48.114;11.442;2023-07-30T04:10:06;18.30;99.90
14122;DHT22;7139;48.114;11.442;2023-07-30T04:12:35;18.30;99.90
14122;DHT22;7139;48.114;11.442;2023-07-30T04:15:02;18.30;99.90
14122;DHT22;7139;48.114;11.442;2023-07-30T04:17:28;18.30;99.90
14122;DHT22;7139;48.114;11.442;2023-07-30T04:19:55;18.30;99.90
14122;DHT22;7139;48.114;11.442;2023-07-30T04:22:22;18.30;99.90
14122;DHT22;7139;48.114;11.442;2023-07-30T04:24:49;18.20;99.90
14122;DHT22;7139;48.114;11.442;2023-07-30T04:27:15;18.20;99.90
14122;DHT22;7139;48.114;11.442;2023-07-30T04:29:44;18.20;99.90
14122;DHT22;7139;48.114;11.442;2023-07-30T04:32:10;18.20;99.90
14122;DHT22;7139;48.114;11.442;2023-07-30T04:34:37;18.20;99.90
14122;DHT22;7139;48.114;11.442;2023-07-30T04:37:05;18.20;99.90
14122;DHT22;7139;48.114;11.442;2023-07-30T04:39:32;18.20;99.90
14122;DHT22;7139;48.114;11.442;2023-07-30T04:41:59;18.20;99.90
14122;DHT22;7139;48.114;11.442;2023-07-30T04:44:26;18.20;99.90
14122;DHT22;7139;48.114;11.442;2023-07-30T04:46:54;18.30;99.90
14122;DHT22;7139;48.114;11.442;2023-07-30T04:49:21;18.20;99.90
14122;DHT22;7139;48.114;11.442;2023-07-30T04:51:48;18.30;99.90
14122;DHT22;7139;48.114;11.442;2023-07-30T04:54:15;18.30;99.90
14122;DHT22;7139;48.114;11.442;2023-07-30T04:56:41;18.30;99.90
14122;DHT22;7139;48.114;11.442;2023-07-30T04:59:08;18.30;99.90
14122;DHT22;7139;48.114;11.442;2023-07-30T05:01:35;18.30;99.90
14122;DHT22;7139;48.114;11.442;2023-07-30T05:04:03;18.40;99.90
14122;DHT22;7139;48.114;11.442;2023-07-30T05:06:30;18.40;99.90
14122;DHT22;7139;48.114;11.442;2023-07-30T05:08:57;18.40;99.90
14122;DHT22;7139;48.114;11.442;2023-07-30T05:11:23;18.40;99.90
14122;DHT22;7139;48.114;11.442;2023-07-30T05:13:50;18.40;99.90
14122;DHT22;7139;48.114;11.442;2023-07-30T05:16:17;18.40;99.90
14122;DHT22;7139;48.114;11.442;2023-07-30T05:18:43;18.40;99.90
14122;DHT22;7139;48.114;11.442;2023-07-30T05:21:12;18.40;99.90
14122;DHT22;7139;48.114;11.442;2023-07-30T05:23:38;18.50;99.90
14122;DHT22;7139;48.114;11.442;2023-07-30T05:26:05;18.40;99.90
14122;DHT22;7139;48.114;11.442;2023-07-30T05:28:32;18.40;99.90
14122;DHT22;7139;48.114;11.442;2023-07-30T05:30:59;18.50;99.90
14122;DHT22;7139;48.114;11.442;2023-07-30T05:33:26;18.50;99.90
14122;DHT22;7139;48.114;11.442;2023-07-30T05:35:53;18.60;99.90
14122;DHT22;7139;48.114;11.442;2023-07-30T05:38:21;18.60;99.90
14122;DHT22;7139;48.114;11.442;2023-07-30T05:40:48;18.60;99.90
14122;DHT22;7139;48.114;11.442;2023-07-30T05:43:14;18.60;99.90
14122;DHT22;7139;48.114;11.442;2023-07-30T05:45:41;18.60;99.90
14122;DHT22;7139;48.114;11.442;2023-07-30T05:48:08;18.70;99.90
14122;DHT22;7139;48.114;11.442;2023-07-30T05:50:35;18.70;99.90
14122;DHT22;7139;48.114;11.442;2023-07-30T05:53:02;18.70;99.90
14122;DHT22;7139;48.114;11.442;2023-07-30T05:55:30;18.70;99.90
14122;DHT22;7139;48.114;11.442;2023-07-30T05:57:57;18.80;99.90
14122;DHT22;7139;48.114;11.442;2023-07-30T06:00:24;18.80;99.90
14122;DHT22;7139;48.114;11.442;2023-07-30T06:02:51;18.80;99.90
14122;DHT22;7139;48.114;11.442;2023-07-30T06:05:18;18.80;99.90
14122;DHT22;7139;48.114;11.442;2023-07-30T06:07:45;18.90;99.90
14122;DHT22;7139;48.114;11.442;2023-07-30T06:10:12;18.90;99.90
14122;DHT22;7139;48.114;11.442;2023-07-30T06:12:40;19.00;99.90
14122;DHT22;7139;48.114;11.442;2023-07-30T06:15:09;19.00;99.90
14122;DHT22;7139;48.114;11.442;2023-07-30T06:17:36;19.10;99.90
14122;DHT22;7139;48.114;11.442;2023-07-30T06:20:03;19.10;99.90
14122;DHT22;7139;48.114;11.442;2023-07-30T06:22:30;19.10;99.90
14122;DHT22;7139;48.114;11.442;2023-07-30T06:24:57;19.20;99.90
14122;DHT22;7139;48.114;11.442;2023-07-30T06:27:24;19.20;99.90
14122;DHT22;7139;48.114;11.442;2023-07-30T06:29:52;19.20;99.90
14122;DHT22;7139;48.114;11.442;2023-07-30T06:32:19;19.30;99.90
14122;DHT22;7139;48.114;11.442;2023-07-30T06:34:46;19.40;99.90
14122;DHT22;7139;48.114;11.442;2023-07-30T06:37:12;19.40;99.90
14122;DHT22;7139;48.114;11.442;2023-07-30T06:39:39;19.50;99.90
14122;DHT22;7139;48.114;11.442;2023-07-30T06:42:06;19.60;99.90
14122;DHT22;7139;48.114;11.442;2023-07-30T06:44:34;19.60;99.90
14122;DHT22;7139;48.114;11.442;2023-07-30T06:47:02;19.70;99.90
14122;DHT22;7139;48.114;11.442;2023-07-30T06:49:29;19.70;99.90
14122;DHT22;7139;48.114;11.442;2023-07-30T06:51:56;19.80;99.90
14122;DHT22;7139;48.114;11.442;2023-07-30T06:54:22;19.80;99.90
14122;DHT22;7139;48.114;11.442;2023-07-30T06:56:49;19.90;99.90
14122;DHT22;7139;48.114;11.442;2023-07-30T06:59:16;20.00;99.90
14122;DHT22;7139;48.114;11.442;2023-07-30T07:01:43;20.00;99.90
14122;DHT22;7139;48.114;11.442;2023-07-30T07:04:11;20.10;99.90
14122;DHT22;7139;48.114;11.442;2023-07-30T07:06:37;20.10;99.90
14122;DHT22;7139;48.114;11.442;2023-07-30T07:09:04;20.20;99.90
14122;DHT22;7139;48.114;11.442;2023-07-30T07:11:31;20.30;99.90
14122;DHT22;7139;48.114;11.442;2023-07-30T07:13:58;20.20;99.90
14122;DHT22;7139;48.114;11.442;2023-07-30T07:16:24;20.30;99.90
14122;DHT22;7139;48.114;11.442;2023-07-30T07:18:51;20.40;99.90
14122;DHT22;7139;48.114;11.442;2023-07-30T07:21:19;20.50;99.90
14122;DHT22;7139;48.114;11.442;2023-07-30T07:23:46;20.60;99.90
14122;DHT22;7139;48.114;11.442;2023-07-30T07:26:13;20.70;99.90
14122;DHT22;7139;48.114;11.442;2023-07-30T07:28:40;20.80;99.90
14122;DHT22;7139;48.114;11.442;2023-07-30T07:31:06;20.80;99.90
14122;DHT22;7139;48.114;11.442;2023-07-30T07:33:33;20.80;99.90
14122;DHT22;7139;48.114;11.442;2023-07-30T07:36:04;21.00;99.90
14122;DHT22;7139;48.114;11.442;2023-07-30T07:38:33;21.10;99.90
14122;DHT22;7139;48.114;11.442;2023-07-30T07:41:00;21.20;99.90
14122;DHT22;7139;48.114;11.442;2023-07-30T07:43:27;21.20;99.90
14122;DHT22;7139;48.114;11.442;2023-07-30T07:45:54;21.20;99.90
14122;DHT22;7139;48.114;11.442;2023-07-30T07:48:21;21.10;99.90
14122;DHT22;7139;48.114;11.442;2023-07-30T07:50:48;21.10;99.90
14122;DHT22;7139;48.114;11.442;2023-07-30T07:53:15;21.00;99.90
14122;DHT22;7139;48.114;11.442;2023-07-30T07:55:43;21.00;99.90
14122;DHT22;7139;48.114;11.442;2023-07-30T07:58:10;21.10;99.90
14122;DHT22;7139;48.114;11.442;2023-07-30T08:00:36;21.20;99.90
14122;DHT22;7139;48.114;11.442;2023-07-30T08:03:03;21.20;99.90
14122;DHT22;7139;48.114;11.442;2023-07-30T08:05:30;21.30;99.90
14122;DHT22;7139;48.114;11.442;2023-07-30T08:07:57;21.30;99.90
14122;DHT22;7139;48.114;11.442;2023-07-30T08:10:23;21.30;99.90
14122;DHT22;7139;48.114;11.442;2023-07-30T08:12:51;21.40;99.90
14122;DHT22;7139;48.114;11.442;2023-07-30T08:15:18;21.40;99.90
14122;DHT22;7139;48.114;11.442;2023-07-30T08:17:46;21.50;99.90
14122;DHT22;7139;48.114;11.442;2023-07-30T08:20:13;21.70;99.90
14122;DHT22;7139;48.114;11.442;2023-07-30T08:22:40;21.70;99.90
14122;DHT22;7139;48.114;11.442;2023-07-30T08:25:07;21.70;99.90
14122;DHT22;7139;48.114;11.442;2023-07-30T08:27:34;21.60;99.90
14122;DHT22;7139;48.114;11.442;2023-07-30T08:30:02;21.50;99.90
14122;DHT22;7139;48.114;11.442;2023-07-30T08:32:29;21.40;99.90
14122;DHT22;7139;48.114;11.442;2023-07-30T08:34:56;21.40;99.90
14122;DHT22;7139;48.114;11.442;2023-07-30T08:37:22;21.40;99.90
14122;DHT22;7139;48.114;11.442;2023-07-30T08:39:49;21.50;99.90
14122;DHT22;7139;48.114;11.442;2023-07-30T08:42:16;21.90;99.90
14122;DHT22;7139;48.114;11.442;2023-07-30T08:44:43;22.20;99.90
14122;DHT22;7139;48.114;11.442;2023-07-30T08:47:11;22.30;99.90
14122;DHT22;7139;48.114;11.442;2023-07-30T08:49:38;22.40;99.90
14122;DHT22;7139;48.114;11.442;2023-07-30T08:52:08;22.60;99.90
14122;DHT22;7139;48.114;11.442;2023-07-30T08:54:36;22.60;99.90
14122;DHT22;7139;48.114;11.442;2023-07-30T08:57:04;22.60;99.40
14122;DHT22;7139;48.114;11.442;2023-07-30T08:59:36;22.60;99.10
14122;DHT22;7139;48.114;11.442;2023-07-30T09:02:04;22.50;99.70
14122;DHT22;7139;48.114;11.442;2023-07-30T09:04:37;22.50;99.30
14122;DHT22;7139;48.114;11.442;2023-07-30T09:07:04;22.40;99.70
14122;DHT22;7139;48.114;11.442;2023-07-30T09:09:35;22.60;99.20
14122;DHT22;7139;48.114;11.442;2023-07-30T09:12:02;22.70;99.40
14122;DHT22;7139;48.114;11.442;2023-07-30T09:14:29;22.80;99.20
14122;DHT22;7139;48.114;11.442;2023-07-30T09:16:57;23.00;98.30
14122;DHT22;7139;48.114;11.442;2023-07-30T09:19:24;23.00;97.80
14122;DHT22;7139;48.114;11.442;2023-07-30T09:21:52;23.00;97.10
14122;DHT22;7139;48.114;11.442;2023-07-30T09:24:21;23.20;97.90
14122;DHT22;7139;48.114;11.442;2023-07-30T09:26:48;23.20;97.30
14122;DHT22;7139;48.114;11.442;2023-07-30T09:29:15;23.10;96.90
14122;DHT22;7139;48.114;11.442;2023-07-30T09:31:49;23.10;97.00
14122;DHT22;7139;48.114;11.442;2023-07-30T09:34:19;23.40;97.20
14122;DHT22;7139;48.114;11.442;2023-07-30T09:36:47;23.50;96.90
14122;DHT22;7139;48.114;11.442;2023-07-30T09:39:16;23.70;96.00
14122;DHT22;7139;48.114;11.442;2023-07-30T09:41:44;23.90;94.80
14122;DHT22;7139;48.114;11.442;2023-07-30T09:44:12;23.80;94.80
14122;DHT22;7139;48.114;11.442;2023-07-30T09:46:42;23.60;94.50
14122;DHT22;7139;48.114;11.442;2023-07-30T09:49:10;23.40;95.20
14122;DHT22;7139;48.114;11.442;2023-07-30T09:51:37;23.20;96.30
14122;DHT22;7139;48.114;11.442;2023-07-30T09:54:06;23.40;97.30
14122;DHT22;7139;48.114;11.442;2023-07-30T09:56:34;23.80;97.40
14122;DHT22;7139;48.114;11.442;2023-07-30T09:59:02;24.10;96.60
14122;DHT22;7139;48.114;11.442;2023-07-30T10:01:29;24.20;95.70
14122;DHT22;7139;48.114;11.442;2023-07-30T10:03:57;24.00;95.30
14122;DHT22;7139;48.114;11.442;2023-07-30T10:06:25;23.60;95.30
14122;DHT22;7139;48.114;11.442;2023-07-30T10:08:56;23.30;95.90
14122;DHT22;7139;48.114;11.442;2023-07-30T10:11:25;22.90;98.90
14122;DHT22;7139;48.114;11.442;2023-07-30T10:13:53;22.40;99.60
14122;DHT22;7139;48.114;11.442;2023-07-30T10:16:25;22.10;99.90
14122;DHT22;7139;48.114;11.442;2023-07-30T10:18:56;21.90;99.90
14122;DHT22;7139;48.114;11.442;2023-07-30T10:21:25;21.80;99.90
14122;DHT22;7139;48.114;11.442;2023-07-30T10:23:59;21.80;99.90
14122;DHT22;7139;48.114;11.442;2023-07-30T10:26:27;21.90;99.90
14122;DHT22;7139;48.114;11.442;2023-07-30T10:31:52;22.00;99.90
14122;DHT22;7139;48.114;11.442;2023-07-30T10:34:19;22.60;99.90
14122;DHT22;7139;48.114;11.442;2023-07-30T10:36:47;22.80;99.90
14122;DHT22;7139;48.114;11.442;2023-07-30T10:39:17;22.80;99.90
14122;DHT22;7139;48.114;11.442;2023-07-30T10:41:45;22.80;99.90
14122;DHT22;7139;48.114;11.442;2023-07-30T10:44:19;22.90;99.90
14122;DHT22;7139;48.114;11.442;2023-07-30T10:46:49;23.10;99.90
14122;DHT22;7139;48.114;11.442;2023-07-30T10:49:16;23.20;99.90
14122;DHT22;7139;48.114;11.442;2023-07-30T10:51:43;23.40;99.90
14122;DHT22;7139;48.114;11.442;2023-07-30T10:54:09;23.60;99.90
14122;DHT22;7139;48.114;11.442;2023-07-30T10:56:37;23.70;99.90
14122;DHT22;7139;48.114;11.442;2023-07-30T10:59:04;23.80;99.70
14122;DHT22;7139;48.114;11.442;2023-07-30T11:01:36;24.00;99.90
14122;DHT22;7139;48.114;11.442;2023-07-30T11:04:08;24.20;98.80
14122;DHT22;7139;48.114;11.442;2023-07-30T11:06:34;24.40;99.60
14122;DHT22;7139;48.114;11.442;2023-07-30T11:09:01;24.60;96.90
14122;DHT22;7139;48.114;11.442;2023-07-30T11:11:28;24.90;96.20
14122;DHT22;7139;48.114;11.442;2023-07-30T11:13:55;24.80;94.90
14122;DHT22;7139;48.114;11.442;2023-07-30T11:16:23;24.80;94.90
14122;DHT22;7139;48.114;11.442;2023-07-30T11:18:50;24.70;95.10
14122;DHT22;7139;48.114;11.442;2023-07-30T11:21:18;24.90;94.90
14122;DHT22;7139;48.114;11.442;2023-07-30T11:23:46;25.10;94.30
14122;DHT22;7139;48.114;11.442;2023-07-30T11:26:17;25.30;93.30
14122;DHT22;7139;48.114;11.442;2023-07-30T11:28:44;25.40;93.20
14122;DHT22;7139;48.114;11.442;2023-07-30T11:31:13;25.20;91.90
14122;DHT22;7139;48.114;11.442;2023-07-30T11:33:42;25.00;92.10
14122;DHT22;7139;48.114;11.442;2023-07-30T11:36:11;24.90;92.40
14122;DHT22;7139;48.114;11.442;2023-07-30T11:38:40;24.90;91.70
14122;DHT22;7139;48.114;11.442;2023-07-30T11:41:08;25.10;91.20
14122;DHT22;7139;48.114;11.442;2023-07-30T11:43:37;25.10;90.40
14122;DHT22;7139;48.114;11.442;2023-07-30T11:46:12;25.10;90.80
14122;DHT22;7139;48.114;11.442;2023-07-30T11:48:40;24.60;92.00
14122;DHT22;7139;48.114;11.442;2023-07-30T11:51:07;24.20;93.30
14122;DHT22;7139;48.114;11.442;2023-07-30T11:53:46;24.20;93.50
14122;DHT22;7139;48.114;11.442;2023-07-30T11:56:19;23.90;94.10
14122;DHT22;7139;48.114;11.442;2023-07-30T11:58:47;23.70;93.90
14122;DHT22;7139;48.114;11.442;2023-07-30T12:01:15;23.50;94.80
14122;DHT22;7139;48.114;11.442;2023-07-30T12:03:42;23.60;95.30
14122;DHT22;7139;48.114;11.442;2023-07-30T12:06:09;23.80;95.50
14122;DHT22;7139;48.114;11.442;2023-07-30T12:08:37;24.00;94.80
14122;DHT22;7139;48.114;11.442;2023-07-30T12:11:06;24.10;95.20
14122;DHT22;7139;48.114;11.442;2023-07-30T12:13:34;24.00;95.10
14122;DHT22;7139;48.114;11.442;2023-07-30T12:16:01;23.80;94.80
14122;DHT22;7139;48.114;11.442;2023-07-30T12:18:28;23.60;95.40
14122;DHT22;7139;48.114;11.442;2023-07-30T12:20:55;23.70;96.10
14122;DHT22;7139;48.114;11.442;2023-07-30T12:23:23;23.80;96.30
14122;DHT22;7139;48.114;11.442;2023-07-30T12:25:50;23.80;95.90
14122;DHT22;7139;48.114;11.442;2023-07-30T12:28:18;23.80;96.60
14122;DHT22;7139;48.114;11.442;2023-07-30T12:30:46;24.00;97.50
14122;DHT22;7139;48.114;11.442;2023-07-30T12:33:12;24.00;96.40
14122;DHT22;7139;48.114;11.442;2023-07-30T12:35:39;23.90;96.50
14122;DHT22;7139;48.114;11.442;2023-07-30T12:38:06;23.80;97.30
14122;DHT22;7139;48.114;11.442;2023-07-30T12:40:33;23.60;97.20
14122;DHT22;7139;48.114;11.442;2023-07-30T12:43:01;23.40;97.40
14122;DHT22;7139;48.114;11.442;2023-07-30T12:45:30;23.30;97.50
14122;DHT22;7139;48.114;11.442;2023-07-30T12:47:57;23.30;97.90
14122;DHT22;7139;48.114;11.442;2023-07-30T12:50:24;23.30;98.40
14122;DHT22;7139;48.114;11.442;2023-07-30T12:52:51;23.20;98.70
14122;DHT22;7139;48.114;11.442;2023-07-30T12:55:18;23.20;98.60
14122;DHT22;7139;48.114;11.442;2023-07-30T12:57:44;23.40;99.30
14122;DHT22;7139;48.114;11.442;2023-07-30T13:00:12;23.80;99.20
14122;DHT22;7139;48.114;11.442;2023-07-30T13:02:40;24.10;98.40
14122;DHT22;7139;48.114;11.442;2023-07-30T13:05:07;24.10;98.00
14122;DHT22;7139;48.114;11.442;2023-07-30T13:07:34;24.10;97.70
14122;DHT22;7139;48.114;11.442;2023-07-30T13:10:05;24.00;97.60
14122;DHT22;7139;48.114;11.442;2023-07-30T13:12:33;24.30;97.40
14122;DHT22;7139;48.114;11.442;2023-07-30T13:15:00;24.20;97.00
14122;DHT22;7139;48.114;11.442;2023-07-30T13:17:27;24.10;97.10
14122;DHT22;7139;48.114;11.442;2023-07-30T13:19:55;23.70;97.50
14122;DHT22;7139;48.114;11.442;2023-07-30T13:22:21;23.40;98.10
14122;DHT22;7139;48.114;11.442;2023-07-30T13:24:48;23.20;98.30
14122;DHT22;7139;48.114;11.442;2023-07-30T13:27:16;23.20;98.40
14122;DHT22;7139;48.114;11.442;2023-07-30T13:29:42;23.20;98.30
14122;DHT22;7139;48.114;11.442;2023-07-30T13:32:09;23.10;98.20
14122;DHT22;7139;48.114;11.442;2023-07-30T13:34:36;23.00;98.30
14122;DHT22;7139;48.114;11.442;2023-07-30T13:37:04;22.80;98.60
14122;DHT22;7139;48.114;11.442;2023-07-30T13:39:31;22.50;98.90
14122;DHT22;7139;48.114;11.442;2023-07-30T13:41:58;22.00;99.90
14122;DHT22;7139;48.114;11.442;2023-07-30T13:44:24;21.50;99.90
14122;DHT22;7139;48.114;11.442;2023-07-30T13:46:51;21.50;99.90
14122;DHT22;7139;48.114;11.442;2023-07-30T13:49:19;21.60;99.90
14122;DHT22;7139;48.114;11.442;2023-07-30T13:51:46;21.40;99.90
14122;DHT22;7139;48.114;11.442;2023-07-30T13:54:14;21.70;99.90
14122;DHT22;7139;48.114;11.442;2023-07-30T13:56:40;21.80;99.90
14122;DHT22;7139;48.114;11.442;2023-07-30T13:59:07;22.00;99.90
14122;DHT22;7139;48.114;11.442;2023-07-30T14:01:34;22.00;99.90
14122;DHT22;7139;48.114;11.442;2023-07-30T14:04:01;22.00;99.90
14122;DHT22;7139;48.114;11.442;2023-07-30T14:06:28;22.10;99.90
14122;DHT22;7139;48.114;11.442;2023-07-30T14:08:54;22.30;99.90
14122;DHT22;7139;48.114;11.442;2023-07-30T14:11:22;22.60;99.90
14122;DHT22;7139;48.114;11.442;2023-07-30T14:13:49;22.80;99.90
14122;DHT22;7139;48.114;11.442;2023-07-30T14:16:16;22.90;99.90
14122;DHT22;7139;48.114;11.442;2023-07-30T14:18:43;23.10;99.90
14122;DHT22;7139;48.114;11.442;2023-07-30T14:21:09;23.20;99.90
14122;DHT22;7139;48.114;11.442;2023-07-30T14:23:38;23.40;99.90
14122;DHT22;7139;48.114;11.442;2023-07-30T14:26:05;23.40;99.90
14122;DHT22;7139;48.114;11.442;2023-07-30T14:28:33;23.30;99.90
14122;DHT22;7139;48.114;11.442;2023-07-30T14:31:00;23.10;99.90
14122;DHT22;7139;48.114;11.442;2023-07-30T14:33:27;23.00;99.90
14122;DHT22;7139;48.114;11.442;2023-07-30T14:35:53;23.00;99.90
14122;DHT22;7139;48.114;11.442;2023-07-30T14:38:20;23.10;99.90
14122;DHT22;7139;48.114;11.442;2023-07-30T14:40:47;23.10;99.90
14122;DHT22;7139;48.114;11.442;2023-07-30T14:43:13;23.10;99.90
14122;DHT22;7139;48.114;11.442;2023-07-30T14:45:42;23.00;99.90
14122;DHT22;7139;48.114;11.442;2023-07-30T14:48:08;22.90;99.90
14122;DHT22;7139;48.114;11.442;2023-07-30T14:50:35;22.80;99.30
14122;DHT22;7139;48.114;11.442;2023-07-30T14:53:02;22.80;99.20
14122;DHT22;7139;48.114;11.442;2023-07-30T14:55:28;22.70;98.80
14122;DHT22;7139;48.114;11.442;2023-07-30T14:57:55;22.60;98.30
14122;DHT22;7139;48.114;11.442;2023-07-30T15:00:22;22.50;98.60
14122;DHT22;7139;48.114;11.442;2023-07-30T15:02:50;22.70;99.00
14122;DHT22;7139;48.114;11.442;2023-07-30T15:05:17;22.90;96.90
14122;DHT22;7139;48.114;11.442;2023-07-30T15:07:44;23.00;97.00
14122;DHT22;7139;48.114;11.442;2023-07-30T15:10:10;23.20;96.50
14122;DHT22;7139;48.114;11.442;2023-07-30T15:12:37;23.20;95.60
14122;DHT22;7139;48.114;11.442;2023-07-30T15:15:07;23.10;94.90
14122;DHT22;7139;48.114;11.442;2023-07-30T15:17:34;23.00;94.70
14122;DHT22;7139;48.114;11.442;2023-07-30T15:20:03;23.00;95.60
14122;DHT22;7139;48.114;11.442;2023-07-30T15:22:31;23.10;94.90
14122;DHT22;7139;48.114;11.442;2023-07-30T15:24:57;23.20;94.60
14122;DHT22;7139;48.114;11.442;2023-07-30T15:27:24;23.20;94.30
14122;DHT22;7139;48.114;11.442;2023-07-30T15:29:51;23.30;94.60
14122;DHT22;7139;48.114;11.442;2023-07-30T15:32:18;23.40;93.70
14122;DHT22;7139;48.114;11.442;2023-07-30T15:34:44;23.40;93.90